Time;durP1;ratioP1;P1;durP2;ratioP2;P2;SDS_P1;SDS_P2;PMS_P1;PMS_P2;Temp;Humidity;BMP_temperature;BMP_pressure;BME280_temperature;BME280_humidity;BME280_pressure;Samples;Min_cycle;Max_cycle;Signal;HPM_P1;HPM_P2
2022/07/30 00:02:25;;;;;;;17.60;14.98;;;;;;;;;;4969374;28;20109;-74
2022/07/30 00:04:50;;;;;;;18.98;16.40;;;;;;;;;;4981133;28;20038;-74
2022/07/30 00:07:15;;;;;;;18.83;15.38;;;;;;;;;;4980470;28;20414;-74
2022/07/30 00:09:41;;;;;;;14.48;12.88;;;;;;;;;;4980631;28;20031;-73
2022/07/30 00:12:06;;;;;;;15.85;14.25;;;;;;;;;;4978029;28;20038;-74
2022/07/30 00:14:33;;;;;;;14.45;13.07;;;;;;;;;;4968969;28;20397;-75
2022/07/30 00:16:59;;;;;;;13.48;12.20;;;;;;;;;;4967949;28;20111;-74
2022/07/30 00:19:24;;;;;;;13.13;11.90;;;;;;;;;;4974154;28;20485;-75
2022/07/30 00:21:49;;;;;;;15.65;12.77;;;;;;;;;;4969727;28;20422;-74
2022/07/30 00:24:15;;;;;;;12.63;11.48;;;;;;;;;;4969186;28;20076;-74
2022/07/30 00:26:40;;;;;;;13.27;12.07;;;;;;;;;;4968601;28;20202;-75
2022/07/30 00:29:05;;;;;;;13.02;12.02;;;;;;;;;;4971244;28;20117;-74
2022/07/30 00:31:31;;;;;;;13.18;12.10;;;;;;;;;;4967937;28;20405;-74
2022/07/30 00:33:56;;;;;;;16.10;14.40;;;;;;;;;;4970095;28;20038;-77
2022/07/30 00:36:22;;;;;;;19.63;17.13;;;;;;;;;;4979056;28;20068;-75
2022/07/30 00:38:47;;;;;;;20.25;15.90;;;;;;;;;;4979587;28;20461;-74
2022/07/30 00:41:12;;;;;;;33.08;20.95;;;;;;;;;;4982452;28;20101;-76
2022/07/30 00:43:38;;;;;;;40.05;26.58;;;;;;;;;;4977469;28;20034;-74
2022/07/30 00:46:03;;;;;;;33.50;24.40;;;;;;;;;;4975461;28;20029;-75
2022/07/30 00:48:28;;;;;;;19.55;15.75;;;;;;;;;;4975857;28;20042;-76
2022/07/30 00:50:54;;;;;;;14.02;12.68;;;;;;;;;;4974169;28;20026;-76
2022/07/30 00:53:19;;;;;;;15.65;14.15;;;;;;;;;;4976062;28;20386;-77
2022/07/30 00:55:44;;;;;;;15.95;14.25;;;;;;;;;;4974409;28;20027;-74
2022/07/30 00:58:10;;;;;;;20.48;16.67;;;;;;;;;;4974054;28;20018;-75
2022/07/30 01:00:35;;;;;;;18.75;16.40;;;;;;;;;;4977958;28;20029;-74
2022/07/30 01:03:00;;;;;;;16.55;14.40;;;;;;;;;;4980489;28;20096;-76
2022/07/30 01:05:26;;;;;;;15.38;13.77;;;;;;;;;;4976688;28;20034;-74
2022/07/30 01:07:51;;;;;;;16.67;14.35;;;;;;;;;;4971346;28;20026;-74
2022/07/30 01:10:17;;;;;;;14.82;13.43;;;;;;;;;;4977850;28;20034;-74
2022/07/30 01:12:43;;;;;;;13.95;12.75;;;;;;;;;;4981168;28;20026;-74
2022/07/30 01:15:09;;;;;;;12.57;11.38;;;;;;;;;;4979665;28;20160;-74
2022/07/30 01:17:34;;;;;;;13.40;11.85;;;;;;;;;;4978815;28;20037;-74
2022/07/30 01:20:20;;;;;;;14.82;12.73;;;;;;;;;;4968850;28;20027;-74
2022/07/30 01:23:07;;;;;;;13.55;12.27;;;;;;;;;;4942485;28;20461;-74
2022/07/30 01:25:50;;;;;;;13.38;12.07;;;;;;;;;;4979536;28;20022;-75
2022/07/30 01:28:18;;;;;;;13.80;12.40;;;;;;;;;;4980893;28;20083;-76
2022/07/30 01:30:44;;;;;;;12.95;11.65;;;;;;;;;;4978097;28;20030;-75
2022/07/30 01:33:10;;;;;;;19.63;17.15;;;;;;;;;;4973380;28;20454;-77
2022/07/30 01:35:36;;;;;;;19.13;15.80;;;;;;;;;;4969588;28;20034;-76
2022/07/30 01:38:03;;;;;;;14.77;13.48;;;;;;;;;;4972729;28;20062;-77
2022/07/30 01:40:29;;;;;;;14.38;13.13;;;;;;;;;;4976096;28;20073;-75
2022/07/30 01:42:57;;;;;;;13.80;12.57;;;;;;;;;;4977551;28;20618;-75
2022/07/30 01:45:23;;;;;;;14.93;13.52;;;;;;;;;;4979237;28;20023;-76
2022/07/30 01:47:51;;;;;;;14.10;12.82;;;;;;;;;;4976750;28;20034;-75
2022/07/30 01:50:16;;;;;;;13.88;12.57;;;;;;;;;;4970367;28;20114;-76
2022/07/30 01:52:44;;;;;;;15.35;13.77;;;;;;;;;;4976164;28;20426;-74
2022/07/30 01:55:11;;;;;;;14.88;13.48;;;;;;;;;;4969057;28;20413;-76
2022/07/30 01:57:38;;;;;;;13.95;12.55;;;;;;;;;;4980235;28;20462;-75
2022/07/30 02:00:05;;;;;;;12.73;11.73;;;;;;;;;;4977304;28;20183;-76
2022/07/30 02:02:30;;;;;;;14.18;12.60;;;;;;;;;;4978816;28;20599;-75
2022/07/30 02:04:56;;;;;;;14.20;12.65;;;;;;;;;;4968710;28;20030;-75
2022/07/30 02:07:44;;;;;;;15.30;14.00;;;;;;;;;;4978414;28;20708;-75
2022/07/30 02:10:14;;;;;;;15.02;13.52;;;;;;;;;;4978919;28;20041;-77
2022/07/30 02:12:46;;;;;;;14.35;12.90;;;;;;;;;;4966045;28;20014;-77
2022/07/30 02:15:36;;;;;;;13.55;12.45;;;;;;;;;;4978263;28;20049;-74
2022/07/30 02:18:01;;;;;;;14.00;12.80;;;;;;;;;;4967782;28;20129;-74
2022/07/30 02:20:28;;;;;;;13.43;12.13;;;;;;;;;;4967269;28;20545;-75
2022/07/30 02:22:55;;;;;;;13.77;12.68;;;;;;;;;;4975266;28;20038;-75
2022/07/30 02:25:22;;;;;;;12.40;11.30;;;;;;;;;;4967906;28;20339;-77
2022/07/30 02:27:54;;;;;;;12.40;11.40;;;;;;;;;;4976627;28;20026;-76
2022/07/30 02:30:22;;;;;;;12.02;11.02;;;;;;;;;;4966028;28;20038;-76
2022/07/30 02:32:47;;;;;;;12.63;11.52;;;;;;;;;;4971436;28;20508;-76
2022/07/30 02:35:16;;;;;;;12.48;11.25;;;;;;;;;;4971418;28;20043;-77
2022/07/30 02:37:42;;;;;;;13.38;12.07;;;;;;;;;;4965164;28;20027;-75
2022/07/30 02:40:09;;;;;;;13.60;12.40;;;;;;;;;;4975603;28;20055;-74
2022/07/30 02:42:35;;;;;;;13.40;12.10;;;;;;;;;;4979160;28;20355;-77
2022/07/30 02:45:01;;;;;;;14.77;13.50;;;;;;;;;;4978017;28;20494;-74
2022/07/30 02:47:27;;;;;;;13.25;12.25;;;;;;;;;;4972598;28;20113;-74
2022/07/30 02:49:53;;;;;;;13.80;12.70;;;;;;;;;;4975310;28;20026;-74
2022/07/30 02:52:19;;;;;;;13.50;12.25;;;;;;;;;;4974813;28;20116;-74
2022/07/30 02:54:46;;;;;;;13.30;12.15;;;;;;;;;;4977887;28;20027;-76
2022/07/30 02:57:13;;;;;;;13.18;12.00;;;;;;;;;;4979546;28;20553;-74
2022/07/30 02:59:39;;;;;;;13.27;12.18;;;;;;;;;;4979939;28;20022;-74
2022/07/30 03:02:06;;;;;;;13.10;11.80;;;;;;;;;;4972874;28;20054;-76
2022/07/30 03:04:31;;;;;;;14.43;13.23;;;;;;;;;;4976397;28;20397;-75
2022/07/30 03:06:58;;;;;;;14.13;12.93;;;;;;;;;;4978569;28;20026;-77
2022/07/30 03:09:23;;;;;;;15.57;14.23;;;;;;;;;;4978583;28;20030;-75
2022/07/30 03:11:50;;;;;;;14.30;13.02;;;;;;;;;;4978547;28;20030;-75
2022/07/30 03:14:15;;;;;;;14.88;13.48;;;;;;;;;;4973660;28;20046;-75
2022/07/30 03:16:44;;;;;;;16.20;14.60;;;;;;;;;;4977292;28;20077;-75
2022/07/30 03:19:10;;;;;;;;;;;;;;;;;;4978433;28;20517;-75
2022/07/30 03:21:36;;;;;;;14.07;12.80;;;;;;;;;;4978466;28;20052;-75
2022/07/30 03:24:03;;;;;;;13.75;12.52;;;;;;;;;;4976175;28;20442;-75
2022/07/30 03:26:29;;;;;;;13.85;12.65;;;;;;;;;;4982253;28;20081;-77
2022/07/30 03:28:55;;;;;;;13.77;12.57;;;;;;;;;;4983881;28;20454;-75
2022/07/30 03:31:20;;;;;;;14.00;12.80;;;;;;;;;;4981606;28;20038;-76
2022/07/30 03:33:46;;;;;;;13.80;12.50;;;;;;;;;;4977179;28;20045;-75
2022/07/30 03:36:12;;;;;;;12.82;11.73;;;;;;;;;;4976579;28;20026;-76
2022/07/30 03:38:38;;;;;;;13.05;11.95;;;;;;;;;;4982880;28;20080;-75
2022/07/30 03:41:05;;;;;;;13.40;12.23;;;;;;;;;;4980153;28;20116;-75
2022/07/30 03:43:31;;;;;;;12.80;11.70;;;;;;;;;;4976391;28;20141;-74
2022/07/30 03:45:57;;;;;;;13.00;11.80;;;;;;;;;;4979015;28;20116;-75
2022/07/30 03:48:23;;;;;;;12.98;11.88;;;;;;;;;;4981757;28;20027;-74
2022/07/30 03:50:50;;;;;;;12.40;11.00;;;;;;;;;;4982266;28;20035;-75
2022/07/30 03:53:15;;;;;;;13.15;11.95;;;;;;;;;;4980130;28;20687;-76
2022/07/30 03:55:41;;;;;;;11.30;10.35;;;;;;;;;;4980670;28;20473;-74
2022/07/30 03:58:06;;;;;;;13.07;11.85;;;;;;;;;;4983400;28;20038;-75
2022/07/30 04:00:32;;;;;;;13.30;12.13;;;;;;;;;;4982116;28;20754;-75
2022/07/30 04:02:57;;;;;;;14.30;12.70;;;;;;;;;;4979922;28;20108;-75
2022/07/30 04:05:22;;;;;;;13.52;12.18;;;;;;;;;;4980276;28;20038;-75
2022/07/30 04:07:48;;;;;;;13.70;12.40;;;;;;;;;;4981427;28;20026;-74
2022/07/30 04:10:14;;;;;;;12.30;11.27;;;;;;;;;;4977056;28;20014;-75
2022/07/30 04:12:40;;;;;;;15.45;13.95;;;;;;;;;;4977988;28;20034;-74
2022/07/30 04:15:05;;;;;;;14.20;12.88;;;;;;;;;;4980312;28;20089;-73
2022/07/30 04:17:34;;;;;;;13.18;11.77;;;;;;;;;;4978080;28;20030;-75
2022/07/30 04:20:01;;;;;;;18.38;13.23;;;;;;;;;;4969756;28;20093;-74
2022/07/30 04:22:29;;;;;;;15.15;12.43;;;;;;;;;;4979967;28;20125;-78
2022/07/30 04:24:55;;;;;;;15.10;12.68;;;;;;;;;;4982215;28;20068;-73
2022/07/30 04:27:21;;;;;;;13.43;12.27;;;;;;;;;;4980603;28;20050;-74
2022/07/30 04:29:46;;;;;;;14.18;12.88;;;;;;;;;;4976688;28;20065;-73
2022/07/30 04:32:12;;;;;;;12.93;11.70;;;;;;;;;;4979515;28;20129;-74
2022/07/30 04:34:47;;;;;;;14.70;13.35;;;;;;;;;;4975986;28;20023;-74
2022/07/30 04:37:14;;;;;;;14.05;12.70;;;;;;;;;;4977420;28;20037;-74
2022/07/30 04:39:39;;;;;;;14.07;12.77;;;;;;;;;;4980092;28;20054;-74
2022/07/30 04:42:04;;;;;;;14.80;13.45;;;;;;;;;;4980833;28;20030;-74
2022/07/30 04:44:30;;;;;;;15.00;13.55;;;;;;;;;;4978197;28;20029;-74
2022/07/30 04:46:55;;;;;;;15.15;13.88;;;;;;;;;;4973724;28;20418;-73
2022/07/30 04:49:21;;;;;;;23.95;14.45;;;;;;;;;;4978753;28;20077;-72
2022/07/30 04:51:47;;;;;;;15.20;13.80;;;;;;;;;;4977513;28;20398;-75
2022/07/30 04:54:13;;;;;;;17.73;16.02;;;;;;;;;;4979254;28;20042;-74
2022/07/30 04:56:39;;;;;;;16.08;14.68;;;;;;;;;;4980329;28;20315;-74
2022/07/30 04:59:05;;;;;;;16.05;14.65;;;;;;;;;;4979399;28;20031;-73
2022/07/30 05:01:33;;;;;;;15.98;14.68;;;;;;;;;;4978884;28;20088;-73
2022/07/30 05:03:59;;;;;;;15.30;14.02;;;;;;;;;;4968860;28;20428;-76
2022/07/30 05:06:25;;;;;;;16.20;14.80;;;;;;;;;;4959911;28;20203;-75
2022/07/30 05:08:50;;;;;;;15.85;14.25;;;;;;;;;;4968413;28;20030;-76
2022/07/30 05:11:16;;;;;;;15.43;14.07;;;;;;;;;;4972105;28;20053;-75
2022/07/30 05:13:42;;;;;;;16.55;15.00;;;;;;;;;;4973913;28;20469;-75
2022/07/30 05:16:08;;;;;;;15.60;14.02;;;;;;;;;;4978247;28;20031;-73
2022/07/30 05:18:33;;;;;;;16.20;14.70;;;;;;;;;;4980230;28;20045;-72
2022/07/30 05:20:59;;;;;;;15.55;14.18;;;;;;;;;;4979835;28;20061;-72
2022/07/30 05:23:24;;;;;;;16.00;14.45;;;;;;;;;;4964024;28;20085;-72
2022/07/30 05:25:49;;;;;;;15.43;14.13;;;;;;;;;;4966607;28;20394;-72
2022/07/30 05:28:15;;;;;;;14.30;13.00;;;;;;;;;;4965746;28;20370;-73
2022/07/30 05:30:40;;;;;;;14.15;12.75;;;;;;;;;;4963890;28;20057;-71
2022/07/30 05:33:05;;;;;;;14.95;13.63;;;;;;;;;;4960552;28;20031;-74
2022/07/30 05:35:31;;;;;;;14.35;13.05;;;;;;;;;;4963094;28;20059;-74
2022/07/30 05:37:57;;;;;;;15.85;13.30;;;;;;;;;;4963090;28;20034;-72
2022/07/30 05:40:23;;;;;;;13.77;12.63;;;;;;;;;;4967245;28;20046;-72
2022/07/30 05:42:48;;;;;;;14.60;13.20;;;;;;;;;;4969431;28;20053;-74
2022/07/30 05:45:13;;;;;;;14.68;13.38;;;;;;;;;;4967830;28;20105;-73
2022/07/30 05:47:39;;;;;;;13.40;12.25;;;;;;;;;;4965814;28;20112;-74
2022/07/30 05:50:04;;;;;;;14.18;12.80;;;;;;;;;;4973910;28;20057;-74
2022/07/30 05:52:30;;;;;;;13.60;12.40;;;;;;;;;;4966937;28;20029;-76
2022/07/30 05:54:55;;;;;;;13.93;12.23;;;;;;;;;;4967660;28;20042;-75
2022/07/30 05:57:20;;;;;;;14.07;12.75;;;;;;;;;;4976505;28;20037;-76
2022/07/30 05:59:46;;;;;;;12.98;11.70;;;;;;;;;;4968381;28;20022;-73
2022/07/30 06:02:11;;;;;;;14.52;13.23;;;;;;;;;;4969237;28;20100;-73
2022/07/30 06:04:37;;;;;;;13.50;12.23;;;;;;;;;;4967726;28;20085;-74
2022/07/30 06:07:02;;;;;;;13.35;12.18;;;;;;;;;;4976470;28;20022;-76
2022/07/30 06:09:27;;;;;;;13.60;12.35;;;;;;;;;;4979966;28;20030;-74
2022/07/30 06:11:53;;;;;;;13.23;11.90;;;;;;;;;;4971100;28;20023;-77
2022/07/30 06:14:18;;;;;;;15.20;13.68;;;;;;;;;;4989144;28;20438;-75
2022/07/30 06:16:44;;;;;;;12.70;11.40;;;;;;;;;;4980256;28;20041;-75
2022/07/30 06:19:09;;;;;;;13.73;10.40;;;;;;;;;;4976678;28;20030;-74
2022/07/30 06:21:34;;;;;;;12.25;11.00;;;;;;;;;;4978841;28;20026;-74
2022/07/30 06:24:00;;;;;;;11.68;10.57;;;;;;;;;;4966228;28;20667;-74
2022/07/30 06:26:25;;;;;;;12.13;11.05;;;;;;;;;;4964021;28;20346;-74
2022/07/30 06:28:51;;;;;;;11.40;10.40;;;;;;;;;;4963161;28;20037;-73
2022/07/30 06:31:16;;;;;;;10.60;9.52;;;;;;;;;;4965740;28;20072;-75
2022/07/30 06:33:42;;;;;;;12.07;10.98;;;;;;;;;;4968375;28;20030;-75
2022/07/30 06:36:07;;;;;;;12.25;10.13;;;;;;;;;;4966930;28;20058;-74
2022/07/30 06:38:32;;;;;;;10.77;9.65;;;;;;;;;;4979178;28;20030;-76
2022/07/30 06:40:58;;;;;;;10.98;9.88;;;;;;;;;;4977231;28;20617;-76
2022/07/30 06:43:23;;;;;;;11.40;10.30;;;;;;;;;;4973905;28;20034;-73
2022/07/30 06:45:49;;;;;;;9.75;8.90;;;;;;;;;;4969143;28;20034;-74
2022/07/30 06:48:16;;;;;;;10.50;9.52;;;;;;;;;;4979158;28;20490;-73
2022/07/30 06:50:41;;;;;;;10.27;9.10;;;;;;;;;;4979639;28;20990;-73
2022/07/30 06:53:06;;;;;;;14.40;9.85;;;;;;;;;;4976361;28;20037;-72
2022/07/30 06:55:32;;;;;;;11.52;10.43;;;;;;;;;;4976906;28;20378;-73
2022/07/30 06:57:57;;;;;;;11.65;9.43;;;;;;;;;;4977790;28;20022;-73
2022/07/30 07:00:23;;;;;;;10.63;9.38;;;;;;;;;;4978659;28;20022;-73
2022/07/30 07:02:48;;;;;;;10.52;8.57;;;;;;;;;;4977570;28;20116;-73
2022/07/30 07:05:13;;;;;;;9.73;8.82;;;;;;;;;;4975627;28;20034;-74
2022/07/30 07:07:39;;;;;;;11.48;9.85;;;;;;;;;;4971609;28;20110;-71
2022/07/30 07:10:05;;;;;;;10.15;8.15;;;;;;;;;;4958375;28;20351;-74
2022/07/30 07:12:30;;;;;;;9.82;8.82;;;;;;;;;;4974993;28;20033;-71
2022/07/30 07:14:55;;;;;;;10.88;9.20;;;;;;;;;;4976160;28;20022;-71
2022/07/30 07:17:21;;;;;;;8.77;7.78;;;;;;;;;;4977619;28;20041;-72
2022/07/30 07:19:46;;;;;;;9.05;8.30;;;;;;;;;;4980021;28;20497;-73
2022/07/30 07:22:12;;;;;;;9.05;8.15;;;;;;;;;;4978303;28;20049;-72
2022/07/30 07:24:37;;;;;;;10.27;8.40;;;;;;;;;;4969329;28;20030;-74
2022/07/30 07:27:02;;;;;;;8.55;7.75;;;;;;;;;;4970214;28;20026;-73
2022/07/30 07:29:28;;;;;;;8.95;8.05;;;;;;;;;;4973817;28;20030;-73
2022/07/30 07:31:53;;;;;;;8.65;7.95;;;;;;;;;;4978802;28;20030;-72
2022/07/30 07:34:18;;;;;;;8.77;8.02;;;;;;;;;;4973039;28;20033;-73
2022/07/30 07:36:44;;;;;;;7.88;7.28;;;;;;;;;;4969277;28;20442;-72
2022/07/30 07:39:09;;;;;;;8.73;7.93;;;;;;;;;;4969031;28;20345;-70
2022/07/30 07:41:35;;;;;;;9.27;8.38;;;;;;;;;;4967341;28;20030;-72
2022/07/30 07:44:01;;;;;;;8.55;7.72;;;;;;;;;;4966449;28;20033;-75
2022/07/30 07:46:26;;;;;;;11.05;8.32;;;;;;;;;;4978232;28;20039;-73
2022/07/30 07:48:52;;;;;;;9.80;8.57;;;;;;;;;;4970008;28;20022;-73
2022/07/30 07:51:17;;;;;;;7.68;6.97;;;;;;;;;;4976390;28;20030;-75
2022/07/30 07:53:42;;;;;;;7.78;7.07;;;;;;;;;;4962852;28;20033;-73
2022/07/30 07:56:08;;;;;;;8.63;7.82;;;;;;;;;;4966673;28;20088;-74
2022/07/30 07:58:34;;;;;;;8.80;8.00;;;;;;;;;;4971460;28;20035;-74
2022/07/30 08:00:59;;;;;;;8.98;8.18;;;;;;;;;;4970005;28;20038;-72
2022/07/30 08:03:24;;;;;;;8.85;7.95;;;;;;;;;;4965872;28;20022;-72
2022/07/30 08:05:50;;;;;;;11.05;8.15;;;;;;;;;;4962727;28;20030;-72
2022/07/30 08:08:15;;;;;;;9.15;8.25;;;;;;;;;;4963766;28;20035;-72
2022/07/30 08:10:40;;;;;;;9.77;7.40;;;;;;;;;;4964324;28;20036;-72
2022/07/30 08:13:06;;;;;;;8.93;7.55;;;;;;;;;;4970618;28;20108;-73
2022/07/30 08:15:31;;;;;;;8.23;7.25;;;;;;;;;;4970570;28;20038;-71
2022/07/30 08:17:57;;;;;;;8.13;7.43;;;;;;;;;;4965420;28;20106;-73
2022/07/30 08:20:23;;;;;;;8.55;7.75;;;;;;;;;;4967271;28;20030;-73
2022/07/30 08:22:49;;;;;;;8.48;7.78;;;;;;;;;;4973446;28;20227;-72
2022/07/30 08:25:14;;;;;;;8.07;7.38;;;;;;;;;;4965622;28;20721;-73
2022/07/30 08:27:40;;;;;;;9.85;7.93;;;;;;;;;;4970070;28;20095;-72
2022/07/30 08:30:07;;;;;;;8.50;7.70;;;;;;;;;;4979743;28;20430;-79
2022/07/30 08:32:32;;;;;;;8.25;7.43;;;;;;;;;;4980582;28;20037;-75
2022/07/30 08:34:57;;;;;;;8.07;7.28;;;;;;;;;;4981187;28;20034;-75
2022/07/30 08:37:23;;;;;;;7.50;6.90;;;;;;;;;;4974240;28;20073;-74
2022/07/30 08:39:50;;;;;;;11.40;7.43;;;;;;;;;;4978138;28;20101;-75
2022/07/30 08:42:15;;;;;;;6.82;6.18;;;;;;;;;;4977591;28;20034;-75
2022/07/30 08:44:43;;;;;;;7.97;6.93;;;;;;;;;;4968212;28;20037;-74
2022/07/30 08:47:08;;;;;;;11.40;7.35;;;;;;;;;;4959753;28;20058;-73
2022/07/30 08:49:35;;;;;;;7.53;6.70;;;;;;;;;;4964640;28;20061;-75
2022/07/30 08:52:01;;;;;;;8.23;7.45;;;;;;;;;;4962786;28;20476;-74
2022/07/30 08:54:26;;;;;;;7.75;6.90;;;;;;;;;;4965446;28;20026;-77
2022/07/30 08:56:52;;;;;;;8.00;6.68;;;;;;;;;;4963444;28;20044;-73
2022/07/30 08:59:17;;;;;;;13.05;7.32;;;;;;;;;;4963952;28;20027;-74
2022/07/30 09:01:43;;;;;;;7.72;7.05;;;;;;;;;;4961585;28;20054;-75
2022/07/30 09:04:08;;;;;;;7.95;7.25;;;;;;;;;;4968101;28;20045;-75
2022/07/30 09:06:34;;;;;;;8.35;7.65;;;;;;;;;;4971445;28;20034;-74
2022/07/30 09:09:00;;;;;;;9.45;7.22;;;;;;;;;;4969679;28;20029;-73
2022/07/30 09:11:25;;;;;;;7.45;6.75;;;;;;;;;;4968084;28;20442;-73
2022/07/30 09:13:51;;;;;;;8.30;7.20;;;;;;;;;;4969154;28;20483;-72
2022/07/30 09:16:20;;;;;;;7.22;6.63;;;;;;;;;;4967606;28;20030;-73
2022/07/30 09:18:45;;;;;;;7.50;6.80;;;;;;;;;;4969197;28;20037;-75
2022/07/30 09:21:15;;;;;;;10.38;6.43;;;;;;;;;;4961883;28;20022;-72
2022/07/30 09:23:53;;;;;;;7.40;6.80;;;;;;;;;;4960838;28;20034;-73
2022/07/30 09:26:18;;;;;;;7.70;6.90;;;;;;;;;;4965254;28;20087;-72
2022/07/30 09:28:44;;;;;;;7.20;6.60;;;;;;;;;;4966781;28;20035;-74
2022/07/30 09:31:09;;;;;;;6.78;6.20;;;;;;;;;;4968840;28;20088;-73
2022/07/30 09:33:36;;;;;;;7.28;6.38;;;;;;;;;;4968731;28;20425;-74
2022/07/30 09:36:03;;;;;;;7.50;6.65;;;;;;;;;;4960367;28;20053;-77
2022/07/30 09:38:28;;;;;;;6.13;5.63;;;;;;;;;;4969043;28;20033;-77
2022/07/30 09:40:55;;;;;;;7.50;6.80;;;;;;;;;;4970618;28;20055;-73
2022/07/30 09:43:20;;;;;;;6.85;6.18;;;;;;;;;;4968981;28;20335;-73
2022/07/30 09:45:49;;;;;;;7.57;6.22;;;;;;;;;;4971042;28;20026;-72
2022/07/30 09:48:21;;;;;;;8.02;7.15;;;;;;;;;;4969972;28;20049;-75
2022/07/30 09:50:48;;;;;;;6.82;6.07;;;;;;;;;;4970644;28;20033;-73
2022/07/30 09:53:14;;;;;;;7.10;6.40;;;;;;;;;;4967888;28;20037;-74
2022/07/30 09:55:39;;;;;;;8.40;6.13;;;;;;;;;;4968135;28;20117;-71
2022/07/30 09:58:05;;;;;;;8.02;6.75;;;;;;;;;;4970044;28;20121;-72
2022/07/30 10:00:32;;;;;;;8.02;7.30;;;;;;;;;;4968017;28;20050;-73
2022/07/30 10:03:02;;;;;;;7.15;6.53;;;;;;;;;;4967764;28;20030;-75
2022/07/30 10:05:27;;;;;;;8.10;6.13;;;;;;;;;;4966838;28;20045;-72
2022/07/30 10:07:57;;;;;;;7.32;6.20;;;;;;;;;;4979751;28;20077;-72
2022/07/30 10:10:27;;;;;;;6.95;6.32;;;;;;;;;;4977181;28;20410;-73
2022/07/30 10:12:53;;;;;;;7.60;6.72;;;;;;;;;;4979016;28;20034;-73
2022/07/30 10:15:20;;;;;;;10.23;6.05;;;;;;;;;;4979013;28;20126;-72
2022/07/30 10:17:46;;;;;;;6.93;6.28;;;;;;;;;;4968709;28;20488;-74
2022/07/30 10:20:13;;;;;;;9.25;7.30;;;;;;;;;;4967333;28;20101;-73
2022/07/30 10:22:39;;;;;;;6.53;5.95;;;;;;;;;;4971649;28;20022;-74
2022/07/30 10:25:04;;;;;;;11.07;7.30;;;;;;;;;;4971841;28;20060;-72
2022/07/30 10:27:30;;;;;;;6.45;5.85;;;;;;;;;;4961626;28;20110;-72
2022/07/30 10:29:56;;;;;;;7.25;6.38;;;;;;;;;;4964709;28;20033;-75
2022/07/30 10:32:22;;;;;;;9.07;6.50;;;;;;;;;;4962824;28;20102;-74
2022/07/30 10:34:47;;;;;;;6.63;5.68;;;;;;;;;;4959869;28;20112;-73
2022/07/30 10:37:15;;;;;;;8.88;6.18;;;;;;;;;;4962351;28;20034;-74
2022/07/30 10:39:53;;;;;;;6.93;6.20;;;;;;;;;;4962747;28;20525;-72
2022/07/30 10:42:39;;;;;;;10.40;5.57;;;;;;;;;;4963137;28;20275;-73
2022/07/30 10:45:14;;;;;;;7.38;5.35;;;;;;;;;;4961210;28;20042;-72
2022/07/30 10:47:39;;;;;;;7.88;6.57;;;;;;;;;;4965534;28;20365;-72
2022/07/30 10:50:05;;;;;;;6.05;5.55;;;;;;;;;;4961717;28;20023;-72
2022/07/30 10:52:50;;;;;;;6.40;5.90;;;;;;;;;;4966689;28;20037;-75
2022/07/30 10:55:17;;;;;;;6.72;6.03;;;;;;;;;;4968765;28;20034;-74
2022/07/30 10:57:59;;;;;;;6.63;6.00;;;;;;;;;;4966493;28;20335;-75
2022/07/30 11:00:24;;;;;;;6.60;5.97;;;;;;;;;;4965740;28;20421;-73
2022/07/30 11:03:16;;;;;;;7.25;6.55;;;;;;;;;;4966522;28;20022;-73
2022/07/30 11:05:42;;;;;;;6.78;6.05;;;;;;;;;;4963232;28;20042;-73
2022/07/30 11:08:26;;;;;;;6.38;5.78;;;;;;;;;;4966985;28;20026;-73
2022/07/30 11:10:52;;;;;;;6.68;6.07;;;;;;;;;;4970421;28;20037;-73
2022/07/30 11:13:17;;;;;;;6.97;6.00;;;;;;;;;;4973323;28;20030;-73
2022/07/30 11:15:54;;;;;;;6.85;6.15;;;;;;;;;;4967749;28;20048;-71
2022/07/30 11:18:20;;;;;;;9.52;5.43;;;;;;;;;;4963926;28;20030;-71
2022/07/30 11:21:09;;;;;;;7.63;5.68;;;;;;;;;;4964673;28;20439;-73
2022/07/30 11:23:36;;;;;;;6.85;6.18;;;;;;;;;;4960287;28;20039;-76
2022/07/30 11:26:01;;;;;;;5.90;5.30;;;;;;;;;;4963847;28;20034;-77
2022/07/30 11:28:40;;;;;;;5.80;5.28;;;;;;;;;;4968182;28;20042;-71
2022/07/30 11:31:24;;;;;;;7.25;5.32;;;;;;;;;;4968029;28;20053;-73
2022/07/30 11:33:50;;;;;;;6.70;6.00;;;;;;;;;;4969171;28;20053;-75
2022/07/30 11:36:15;;;;;;;7.60;6.43;;;;;;;;;;4970814;28;20058;-72
2022/07/30 11:39:07;;;;;;;7.03;5.75;;;;;;;;;;4969412;28;20459;-74
2022/07/30 11:41:32;;;;;;;7.18;6.57;;;;;;;;;;4964342;28;20074;-72
2022/07/30 11:44:16;;;;;;;7.68;6.85;;;;;;;;;;4968287;28;20034;-73
2022/07/30 11:46:47;;;;;;;7.93;7.13;;;;;;;;;;4974455;28;20034;-72
2022/07/30 11:49:14;;;;;;;6.80;6.20;;;;;;;;;;4980684;28;20026;-72
2022/07/30 11:51:40;;;;;;;7.03;6.45;;;;;;;;;;4978744;28;20033;-74
2022/07/30 11:54:07;;;;;;;6.03;5.50;;;;;;;;;;4977035;28;20026;-72
2022/07/30 11:56:32;;;;;;;7.00;6.25;;;;;;;;;;4982894;28;20027;-71
2022/07/30 11:59:02;;;;;;;6.32;5.80;;;;;;;;;;4981602;28;20780;-72
2022/07/30 12:01:29;;;;;;;6.07;5.47;;;;;;;;;;4981762;28;20034;-73
2022/07/30 12:03:55;;;;;;;9.93;6.20;;;;;;;;;;4973979;28;20542;-73
2022/07/30 12:06:20;;;;;;;7.07;6.38;;;;;;;;;;4972236;28;20039;-74
2022/07/30 12:08:47;;;;;;;7.35;6.57;;;;;;;;;;4981680;28;20022;-73
2022/07/30 12:11:12;;;;;;;7.43;6.20;;;;;;;;;;4976476;28;20022;-73
2022/07/30 12:13:38;;;;;;;7.03;6.38;;;;;;;;;;4967743;28;20357;-75
2022/07/30 12:16:08;;;;;;;7.15;6.55;;;;;;;;;;4977468;28;20113;-75
2022/07/30 12:18:33;;;;;;;6.10;5.50;;;;;;;;;;4975033;28;20026;-74
2022/07/30 12:21:00;;;;;;;7.30;6.70;;;;;;;;;;4967840;28;20022;-74
2022/07/30 12:23:26;;;;;;;7.03;6.32;;;;;;;;;;4964132;28;20026;-76
2022/07/30 12:25:51;;;;;;;6.93;6.32;;;;;;;;;;4966505;28;20034;-73
2022/07/30 12:28:24;;;;;;;12.05;5.65;;;;;;;;;;4965004;28;20038;-75
2022/07/30 12:30:50;;;;;;;7.07;6.47;;;;;;;;;;4968614;28;20022;-72
2022/07/30 12:33:15;;;;;;;8.57;6.57;;;;;;;;;;4972221;28;20026;-73
2022/07/30 12:35:48;;;;;;;7.20;6.50;;;;;;;;;;4974253;28;20060;-73
2022/07/30 12:38:14;;;;;;;7.55;6.70;;;;;;;;;;4970453;28;20038;-74
2022/07/30 12:40:58;;;;;;;6.75;6.13;;;;;;;;;;4969140;28;20098;-73
2022/07/30 12:43:42;;;;;;;7.10;6.40;;;;;;;;;;4970709;28;20038;-74
2022/07/30 12:46:08;;;;;;;7.18;6.50;;;;;;;;;;4969249;28;20472;-75
2022/07/30 12:48:33;;;;;;;6.85;6.32;;;;;;;;;;4970033;28;20113;-75
2022/07/30 12:51:08;;;;;;;7.28;6.68;;;;;;;;;;4976438;28;20022;-73
2022/07/30 12:53:34;;;;;;;6.60;6.00;;;;;;;;;;4970391;28;20034;-71
2022/07/30 12:56:12;;;;;;;7.65;6.95;;;;;;;;;;4965141;28;20042;-74
2022/07/30 12:58:37;;;;;;;;;;;;;;;;;;4969428;28;20113;-74
2022/07/30 13:01:03;;;;;;;6.67;5.57;;;;;;;;;;4970718;28;19997;-75
2022/07/30 13:03:37;;;;;;;9.40;7.03;;;;;;;;;;4966494;28;20048;-74
2022/07/30 13:06:10;;;;;;;7.82;7.00;;;;;;;;;;4968272;28;20081;-71
2022/07/30 13:08:47;;;;;;;8.13;7.10;;;;;;;;;;4970982;28;20454;-70
2022/07/30 13:11:14;;;;;;;7.65;6.93;;;;;;;;;;4966560;28;20030;-72
2022/07/30 13:13:39;;;;;;;7.63;7.03;;;;;;;;;;4961224;28;20440;-72
2022/07/30 13:16:05;;;;;;;9.43;7.35;;;;;;;;;;4963485;28;20034;-72
2022/07/30 13:18:31;;;;;;;8.07;6.97;;;;;;;;;;4964484;28;20117;-75
2022/07/30 13:20:57;;;;;;;8.23;7.43;;;;;;;;;;4966645;28;20034;-74
2022/07/30 13:23:23;;;;;;;7.97;7.28;;;;;;;;;;4964964;28;20029;-73
2022/07/30 13:25:48;;;;;;;7.88;7.18;;;;;;;;;;4963060;28;20066;-73
2022/07/30 13:28:14;;;;;;;7.68;6.97;;;;;;;;;;4969117;28;20048;-73
2022/07/30 13:30:39;;;;;;;7.45;6.53;;;;;;;;;;4970445;28;20084;-72
2022/07/30 13:33:05;;;;;;;7.82;7.13;;;;;;;;;;4961824;28;20026;-74
2022/07/30 13:35:30;;;;;;;8.20;7.60;;;;;;;;;;4964652;28;20085;-72
2022/07/30 13:37:56;;;;;;;9.23;8.00;;;;;;;;;;4961114;28;20030;-73
2022/07/30 13:40:21;;;;;;;12.35;8.23;;;;;;;;;;4965282;28;20050;-74
2022/07/30 13:42:46;;;;;;;7.82;7.22;;;;;;;;;;4969653;28;20022;-73
2022/07/30 13:45:12;;;;;;;8.45;7.75;;;;;;;;;;4971165;28;20457;-73
2022/07/30 13:47:37;;;;;;;8.15;7.47;;;;;;;;;;4970678;28;20118;-72
2022/07/30 13:50:03;;;;;;;8.77;8.05;;;;;;;;;;4970297;28;20034;-71
2022/07/30 13:52:28;;;;;;;9.70;8.80;;;;;;;;;;4974898;28;20041;-73
2022/07/30 13:54:53;;;;;;;9.40;8.57;;;;;;;;;;4967762;28;20038;-72
2022/07/30 13:57:19;;;;;;;8.93;8.07;;;;;;;;;;4965349;28;20041;-71
2022/07/30 13:59:45;;;;;;;9.20;8.48;;;;;;;;;;4965262;28;20454;-74
2022/07/30 14:02:10;;;;;;;8.32;7.55;;;;;;;;;;4962774;28;20030;-73
2022/07/30 14:04:35;;;;;;;7.70;6.90;;;;;;;;;;4966103;28;20038;-70
2022/07/30 14:07:01;;;;;;;7.78;7.18;;;;;;;;;;4962904;28;20046;-73
2022/07/30 14:09:26;;;;;;;8.40;7.40;;;;;;;;;;4963870;28;20041;-72
2022/07/30 14:11:52;;;;;;;8.02;7.32;;;;;;;;;;4964152;28;20381;-74
2022/07/30 14:14:17;;;;;;;8.07;7.38;;;;;;;;;;4965005;28;20045;-71
2022/07/30 14:16:45;;;;;;;7.57;6.88;;;;;;;;;;4965202;28;20031;-73
2022/07/30 14:19:10;;;;;;;8.95;7.22;;;;;;;;;;4971599;28;20030;-72
2022/07/30 14:21:36;;;;;;;7.63;6.93;;;;;;;;;;4967735;28;20037;-73
2022/07/30 14:24:02;;;;;;;7.32;6.63;;;;;;;;;;4974928;28;20385;-73
2022/07/30 14:26:27;;;;;;;8.07;7.35;;;;;;;;;;4966524;28;20034;-74
2022/07/30 14:28:53;;;;;;;7.43;6.75;;;;;;;;;;4963852;28;20314;-73
2022/07/30 14:31:18;;;;;;;7.18;6.57;;;;;;;;;;4960987;28;20054;-71